createdAt,value
2018-11-22T00:01:17.871Z,32.98
2018-11-22T00:03:47.023Z,28.30
2018-11-22T00:06:15.116Z,30.95
2018-11-22T00:08:44.366Z,30.62
2018-11-22T00:11:12.483Z,24.82
2018-11-22T00:13:40.553Z,39.58
2018-11-22T00:16:08.640Z,32.78
2018-11-22T00:18:36.687Z,35.48
2018-11-22T00:21:04.963Z,39.75
2018-11-22T00:23:33.122Z,34.03
2018-11-22T00:26:20.735Z,24.85
2018-11-22T00:28:48.816Z,32.35
2018-11-22T00:31:16.889Z,37.78
2018-11-22T00:34:04.712Z,29.05
2018-11-22T00:36:32.817Z,34.05
2018-11-22T00:39:00.906Z,27.00
2018-11-22T00:41:29.415Z,34.48
2018-11-22T00:43:57.489Z,31.97
2018-11-22T00:46:25.549Z,35.03
2018-11-22T00:48:53.590Z,34.98
2018-11-22T00:51:21.708Z,26.65
2018-11-22T00:53:49.782Z,28.10
2018-11-22T00:56:17.892Z,26.68
2018-11-22T00:58:46.022Z,38.53
2018-11-22T01:01:14.079Z,34.65
2018-11-22T01:03:42.151Z,22.70
2018-11-22T01:06:10.224Z,41.35
2018-11-22T01:08:38.690Z,41.40
2018-11-22T01:11:06.780Z,29.25
2018-11-22T01:13:54.617Z,31.65
2018-11-22T01:16:22.703Z,27.48
2018-11-22T01:18:50.812Z,26.02
2018-11-22T01:21:18.905Z,37.58
2018-11-22T01:24:06.573Z,24.27
2018-11-22T01:26:54.141Z,32.55
2018-11-22T01:29:22.589Z,29.75
2018-11-22T01:31:50.689Z,33.20
2018-11-22T01:34:18.790Z,33.15
2018-11-22T01:36:46.920Z,37.35
2018-11-22T01:39:15.000Z,28.67
2018-11-22T01:41:43.455Z,32.13
2018-11-22T01:44:11.561Z,30.72
2018-11-22T01:46:39.664Z,29.90
2018-11-22T01:49:27.301Z,32.78
2018-11-22T01:51:55.395Z,25.52
2018-11-22T01:54:23.530Z,26.07
2018-11-22T01:56:51.633Z,32.95
2018-11-22T01:59:19.710Z,29.67
2018-11-22T02:02:07.316Z,30.48
2018-11-22T02:04:54.927Z,24.12
2018-11-22T02:07:23.044Z,23.83
2018-11-22T02:09:51.128Z,18.98
2018-11-22T02:12:19.461Z,26.80
2018-11-22T02:14:47.951Z,24.98
2018-11-22T02:17:16.507Z,29.35
2018-11-22T02:19:44.982Z,35.30
2018-11-22T02:22:13.603Z,24.45
2018-11-22T02:24:41.675Z,29.15
2018-11-22T02:27:09.746Z,36.65
2018-11-22T02:29:37.865Z,29.18
2018-11-22T02:32:25.433Z,29.00
2018-11-22T02:34:53.540Z,31.30
2018-11-22T02:37:22.622Z,29.40
2018-11-22T02:39:50.705Z,32.70
2018-11-22T02:42:38.358Z,28.75
2018-11-22T02:45:08.688Z,27.87
2018-11-22T02:47:56.262Z,24.60
2018-11-22T02:50:25.002Z,28.02
2018-11-22T02:52:53.893Z,29.25
2018-11-22T02:55:21.970Z,23.32
2018-11-22T02:57:50.057Z,24.95
2018-11-22T03:00:39.113Z,25.82
2018-11-22T03:03:26.691Z,29.02
2018-11-22T03:05:54.775Z,29.27
2018-11-22T03:08:22.862Z,34.05
2018-11-22T03:11:10.453Z,27.93
2018-11-22T03:13:38.566Z,25.32
2018-11-22T03:16:06.682Z,37.05
2018-11-22T03:18:34.836Z,33.50
2018-11-22T03:21:22.648Z,31.17
2018-11-22T03:24:10.228Z,28.90
2018-11-22T03:26:38.294Z,30.15
2018-11-22T03:29:06.402Z,29.23
2018-11-22T03:31:34.804Z,30.62
2018-11-22T03:34:02.880Z,26.20
2018-11-22T03:36:30.938Z,25.70
2018-11-22T03:39:18.563Z,24.23
2018-11-22T03:41:46.648Z,30.30
2018-11-22T03:44:34.257Z,27.02
2018-11-22T03:47:21.904Z,24.07
2018-11-22T03:49:50.561Z,22.93
2018-11-22T03:52:18.025Z,29.98
2018-11-22T03:54:46.137Z,25.48
2018-11-22T03:57:14.188Z,30.40
2018-11-22T04:00:01.795Z,25.00
2018-11-22T04:02:29.898Z,32.05
2018-11-22T04:04:57.994Z,24.95
2018-11-22T04:07:26.073Z,37.65
2018-11-22T04:09:54.151Z,29.05
2018-11-22T04:12:22.296Z,33.78
2018-11-22T04:14:50.389Z,26.02
2018-11-22T04:17:18.457Z,28.40
2018-11-22T04:19:46.546Z,27.70
2018-11-22T04:22:14.984Z,29.77
2018-11-22T04:24:43.066Z,33.42
2018-11-22T04:27:11.171Z,30.32
2018-11-22T04:29:58.758Z,26.52
2018-11-22T04:32:27.199Z,23.05
2018-11-22T04:34:55.361Z,27.98
2018-11-22T04:37:23.476Z,26.45
2018-11-22T04:39:51.555Z,34.80
2018-11-22T04:42:19.722Z,28.67
2018-11-22T04:44:47.785Z,26.23
2018-11-22T04:47:15.889Z,27.37
2018-11-22T04:49:43.973Z,30.12
2018-11-22T04:52:12.031Z,29.00
2018-11-22T04:54:40.141Z,24.30
2018-11-22T04:57:08.210Z,35.10
2018-11-22T04:59:36.352Z,24.45
2018-11-22T05:02:04.864Z,27.05
2018-11-22T05:04:33.312Z,27.98
2018-11-22T05:07:21.003Z,25.88
2018-11-22T05:09:49.132Z,31.05
2018-11-22T05:12:17.571Z,27.98
2018-11-22T05:14:45.657Z,28.02
2018-11-22T05:17:33.257Z,33.53
2018-11-22T05:20:01.353Z,79.60
2018-11-22T05:22:30.502Z,25.82
2018-11-22T05:24:58.620Z,41.63
2018-11-22T05:27:26.689Z,36.85
2018-11-22T05:29:54.820Z,32.95
2018-11-22T05:32:24.334Z,36.28
2018-11-22T05:34:52.795Z,30.27
2018-11-22T05:37:20.862Z,27.42
2018-11-22T05:40:09.538Z,32.35
2018-11-22T05:42:37.611Z,33.05
2018-11-22T05:45:07.865Z,28.12
2018-11-22T05:47:35.938Z,33.15
2018-11-22T05:50:27.745Z,29.05
2018-11-22T05:52:57.429Z,29.25
2018-11-22T05:55:25.491Z,36.17
2018-11-22T05:58:13.077Z,42.75
2018-11-22T06:00:41.169Z,47.20
2018-11-22T06:03:09.284Z,32.25
2018-11-22T06:05:37.384Z,28.85
2018-11-22T06:08:05.872Z,30.77
2018-11-22T06:10:35.530Z,36.30
2018-11-22T06:13:04.693Z,28.83
2018-11-22T06:15:32.831Z,25.65
2018-11-22T06:18:01.700Z,33.83
2018-11-22T06:20:30.815Z,21.68
2018-11-22T06:22:58.882Z,30.72
2018-11-22T06:25:27.043Z,38.10
2018-11-22T06:27:55.833Z,25.85
2018-11-22T06:30:25.333Z,29.42
2018-11-22T06:32:54.838Z,29.75
2018-11-22T06:35:23.837Z,34.95
2018-11-22T06:37:52.028Z,28.15
2018-11-22T06:40:39.578Z,31.42
2018-11-22T06:43:27.213Z,24.00
2018-11-22T06:45:55.308Z,28.73
2018-11-22T06:48:23.575Z,30.75
2018-11-22T06:51:11.268Z,23.52
2018-11-22T06:53:39.412Z,25.70
2018-11-22T06:56:07.517Z,31.95
2018-11-22T06:58:35.580Z,28.90
2018-11-22T07:01:03.688Z,29.30
2018-11-22T07:03:31.764Z,31.10
2018-11-22T07:05:59.914Z,24.80
2018-11-22T07:08:28.432Z,33.53
2018-11-22T07:10:56.584Z,26.75
2018-11-22T07:13:24.598Z,22.90
2018-11-22T07:15:52.673Z,26.80
2018-11-22T07:18:20.757Z,26.70
2018-11-22T07:21:08.323Z,31.30
2018-11-22T07:23:55.961Z,29.63
2018-11-22T07:26:24.079Z,37.15
2018-11-22T07:28:52.201Z,25.95
2018-11-22T07:31:20.266Z,24.90
2018-11-22T07:33:48.402Z,28.07
2018-11-22T07:36:16.561Z,26.65
2018-11-22T07:38:44.644Z,21.82
2018-11-22T07:41:13.175Z,24.12
2018-11-22T07:43:41.682Z,26.85
2018-11-22T07:46:09.778Z,29.10
2018-11-22T07:48:37.851Z,28.35
2018-11-22T07:51:05.961Z,28.83
2018-11-22T07:53:34.083Z,34.67
2018-11-22T07:56:02.157Z,27.22
2018-11-22T07:58:30.261Z,24.45
2018-11-22T08:00:58.332Z,31.10
2018-11-22T08:03:26.887Z,28.17
2018-11-22T08:05:54.964Z,22.67
2018-11-22T08:08:23.060Z,23.98
2018-11-22T08:10:51.194Z,22.52
2018-11-22T08:13:19.239Z,24.25
2018-11-22T08:15:47.448Z,30.35
2018-11-22T08:18:15.449Z,22.25
2018-11-22T08:20:43.522Z,24.67
2018-11-22T08:23:12.117Z,30.02
2018-11-22T08:25:40.209Z,27.35
2018-11-22T08:28:08.663Z,27.70
2018-11-22T08:30:36.751Z,27.37
2018-11-22T08:33:05.041Z,30.97
2018-11-22T08:35:33.166Z,33.75
2018-11-22T08:38:01.244Z,27.35
2018-11-22T08:40:30.358Z,34.08
2018-11-22T08:42:59.059Z,28.75
2018-11-22T08:45:27.831Z,33.33
2018-11-22T08:47:55.990Z,33.33
2018-11-22T08:50:25.775Z,33.42
2018-11-22T08:52:55.267Z,33.88
2018-11-22T08:55:23.370Z,29.57
2018-11-22T08:57:51.932Z,30.60
2018-11-22T09:00:21.376Z,29.70
2018-11-22T09:02:49.854Z,29.52
2018-11-22T09:05:19.589Z,37.98
2018-11-22T09:07:48.127Z,33.58
2018-11-22T09:10:18.089Z,40.20
2018-11-22T09:12:46.664Z,30.80
2018-11-22T09:15:33.827Z,34.40
2018-11-22T09:18:01.946Z,30.00
2018-11-22T09:20:31.595Z,28.25
2018-11-22T09:22:59.660Z,39.90
2018-11-22T09:25:27.847Z,110.88
2018-11-22T09:27:56.383Z,107.83
2018-11-22T09:30:26.298Z,32.28
2018-11-22T09:32:54.879Z,23.73
2018-11-22T09:35:24.430Z,40.10
2018-11-22T09:37:52.757Z,25.60
2018-11-22T09:40:23.021Z,36.00
2018-11-22T09:42:51.080Z,26.82
2018-11-22T09:45:22.290Z,30.10
2018-11-22T09:47:50.717Z,31.37
2018-11-22T09:50:19.473Z,25.62
2018-11-22T09:52:48.692Z,33.88
2018-11-22T09:55:18.184Z,30.12
2018-11-22T09:57:46.616Z,34.38
2018-11-22T10:00:17.393Z,33.02
2018-11-22T10:02:45.494Z,28.50
2018-11-22T10:05:32.677Z,31.75
2018-11-22T10:08:00.723Z,29.50
2018-11-22T10:10:30.582Z,31.48
2018-11-22T10:12:58.662Z,32.83
2018-11-22T10:15:29.084Z,30.25
2018-11-22T10:17:57.549Z,24.52
2018-11-22T10:20:26.756Z,33.00
2018-11-22T10:22:55.783Z,27.20
2018-11-22T10:25:24.128Z,32.93
2018-11-22T10:27:53.646Z,38.15
2018-11-22T10:30:21.864Z,30.85
2018-11-22T10:32:53.913Z,32.40
2018-11-22T10:35:23.679Z,36.85
2018-11-22T10:37:51.827Z,27.48
2018-11-22T10:40:21.053Z,26.85
2018-11-22T10:42:50.563Z,28.45
2018-11-22T10:45:20.091Z,31.45
2018-11-22T10:47:49.798Z,77.03
2018-11-22T10:50:19.237Z,34.25
2018-11-22T10:52:47.315Z,31.48
2018-11-22T10:55:17.178Z,34.88
2018-11-22T10:57:46.166Z,29.07
2018-11-22T11:00:52.822Z,29.48
2018-11-22T11:03:40.029Z,40.23
2018-11-22T11:06:27.273Z,27.73
2018-11-22T11:08:55.313Z,32.75
2018-11-22T11:11:23.784Z,33.70
2018-11-22T11:13:52.216Z,28.83
2018-11-22T11:16:20.570Z,28.77
2018-11-22T11:18:48.650Z,40.45
2018-11-22T11:21:17.098Z,27.33
2018-11-22T11:23:45.171Z,32.47
2018-11-22T11:26:13.260Z,29.53
2018-11-22T11:29:01.150Z,25.47
2018-11-22T11:31:29.661Z,37.17
2018-11-22T11:33:57.712Z,32.03
2018-11-22T11:36:25.776Z,35.23
2018-11-22T11:38:53.862Z,28.03
2018-11-22T11:41:21.913Z,34.00
2018-11-22T11:43:49.949Z,31.53
2018-11-22T11:46:18.021Z,30.63
2018-11-22T11:48:46.084Z,29.50
2018-11-22T11:51:15.234Z,33.70
2018-11-22T11:53:43.328Z,38.83
2018-11-22T11:56:11.378Z,36.73
2018-11-22T11:58:39.466Z,32.73
2018-11-22T12:01:07.571Z,41.73
2018-11-22T12:03:35.645Z,32.80
2018-11-22T12:06:03.684Z,38.30
2018-11-22T12:08:31.763Z,37.87
2018-11-22T12:10:59.835Z,38.67
2018-11-22T12:13:27.909Z,34.07
2018-11-22T12:15:56.013Z,35.78
2018-11-22T12:18:24.517Z,42.55
2018-11-22T12:20:52.571Z,34.43
2018-11-22T12:23:20.652Z,30.72
2018-11-22T12:25:48.697Z,44.93
2018-11-22T12:28:16.777Z,36.58
2018-11-22T12:30:44.842Z,35.28
2018-11-22T12:33:21.522Z,35.75
2018-11-22T12:36:08.751Z,37.23
2018-11-22T12:38:36.857Z,35.78
2018-11-22T12:41:04.950Z,36.33
2018-11-22T12:43:33.017Z,33.20
2018-11-22T12:46:01.103Z,32.00
2018-11-22T12:48:29.156Z,34.08
2018-11-22T12:50:57.271Z,38.40
2018-11-22T12:53:25.332Z,35.10
2018-11-22T12:55:53.372Z,29.65
2018-11-22T12:58:21.440Z,39.67
2018-11-22T13:00:49.981Z,35.65
2018-11-22T13:03:18.405Z,38.53
2018-11-22T13:05:46.460Z,33.08
2018-11-22T13:08:14.881Z,32.28
2018-11-22T13:10:43.020Z,36.33
2018-11-22T13:13:11.036Z,46.73
2018-11-22T13:15:39.481Z,39.50
2018-11-22T13:18:07.561Z,33.85
2018-11-22T13:20:35.632Z,48.17
2018-11-22T13:23:04.138Z,40.15
2018-11-22T13:25:32.670Z,40.10
2018-11-22T13:28:01.178Z,39.05
2018-11-22T13:30:29.641Z,34.92
2018-11-22T13:32:58.765Z,36.08
2018-11-22T13:35:26.871Z,48.30
2018-11-22T13:37:55.803Z,45.70
2018-11-22T13:40:24.185Z,44.00
2018-11-22T13:42:52.795Z,36.42
2018-11-22T13:45:23.093Z,46.58
2018-11-22T13:47:52.517Z,38.38
2018-11-22T13:50:42.165Z,41.08
2018-11-22T13:53:08.760Z,40.20
2018-11-22T13:55:36.831Z,46.75
2018-11-22T13:58:05.281Z,39.03
2018-11-22T14:00:34.379Z,44.63
2018-11-22T14:03:04.031Z,57.40
2018-11-22T14:05:32.085Z,41.30
2018-11-22T14:08:00.932Z,41.10
2018-11-22T14:10:29.982Z,50.00
2018-11-22T14:12:59.172Z,47.95
2018-11-22T14:15:29.261Z,41.05
2018-11-22T14:17:59.053Z,44.00
2018-11-22T14:20:46.271Z,44.33
2018-11-22T14:23:14.371Z,44.35
2018-11-22T14:25:45.036Z,44.88
2018-11-22T14:28:10.545Z,46.35
2018-11-22T14:30:38.637Z,35.52
2018-11-22T14:33:07.111Z,35.05
2018-11-22T14:35:35.254Z,39.63
2018-11-22T14:38:03.732Z,40.67
2018-11-22T14:40:32.606Z,40.17
2018-11-22T14:43:01.090Z,40.23
2018-11-22T14:45:30.084Z,43.92
2018-11-22T14:47:59.786Z,36.85
2018-11-22T14:51:06.748Z,37.88
2018-11-22T14:53:34.829Z,37.67
2018-11-22T14:56:02.889Z,40.52
2018-11-22T14:58:31.023Z,41.20
2018-11-22T15:00:59.062Z,46.55
2018-11-22T15:03:27.558Z,53.05
2018-11-22T15:05:55.626Z,42.65
2018-11-22T15:08:23.684Z,42.10
2018-11-22T15:10:51.751Z,68.22
2018-11-22T15:13:19.913Z,47.23
2018-11-22T15:15:48.403Z,37.88
2018-11-22T15:18:16.887Z,40.88
2018-11-22T15:20:44.968Z,42.67
2018-11-22T15:23:13.040Z,35.55
2018-11-22T15:25:41.128Z,46.30
2018-11-22T15:28:09.180Z,36.65
2018-11-22T15:30:37.228Z,46.90
2018-11-22T15:33:05.797Z,41.88
2018-11-22T15:35:33.845Z,40.58
2018-11-22T15:38:01.926Z,44.23
2018-11-22T15:40:30.012Z,41.95
2018-11-22T15:42:59.761Z,45.52
2018-11-22T15:45:34.797Z,46.63
2018-11-22T15:47:56.816Z,42.67
2018-11-22T15:50:28.599Z,55.73
2018-11-22T15:52:56.650Z,44.53
2018-11-22T15:55:25.557Z,44.45
2018-11-22T15:57:55.558Z,39.85
2018-11-22T16:00:33.809Z,41.02
2018-11-22T16:03:03.372Z,41.85
2018-11-22T16:05:32.286Z,51.85
2018-11-22T16:08:00.381Z,46.45
2018-11-22T16:10:29.956Z,39.33
2018-11-22T16:12:59.911Z,71.05
2018-11-22T16:15:33.608Z,40.78
2018-11-22T16:18:01.752Z,46.18
2018-11-22T16:20:29.889Z,53.08
2018-11-22T16:22:58.450Z,49.27
2018-11-22T16:25:26.555Z,40.70
2018-11-22T16:27:55.048Z,51.10
2018-11-22T16:30:24.581Z,65.97
2018-11-22T16:32:53.361Z,44.30
2018-11-22T16:35:22.292Z,41.90
2018-11-22T16:37:50.366Z,49.20
2018-11-22T16:40:20.065Z,42.00
2018-11-22T16:42:49.151Z,50.35
2018-11-22T16:45:36.455Z,49.08
2018-11-22T16:48:06.301Z,54.85
2018-11-22T16:50:35.780Z,48.98
2018-11-22T16:53:04.212Z,57.93
2018-11-22T16:55:32.821Z,49.40
2018-11-22T16:58:01.959Z,46.37
2018-11-22T17:00:31.453Z,50.75
2018-11-22T17:03:03.712Z,49.40
2018-11-22T17:05:32.117Z,42.88
2018-11-22T17:08:01.384Z,39.18
2018-11-22T17:10:30.609Z,40.33
2018-11-22T17:13:00.287Z,46.85
2018-11-22T17:15:30.013Z,46.18
2018-11-22T17:17:58.689Z,54.20
2018-11-22T17:20:27.781Z,42.70
2018-11-22T17:22:55.893Z,61.30
2018-11-22T17:25:44.578Z,51.48
2018-11-22T17:28:12.741Z,50.45
2018-11-22T17:30:42.725Z,40.85
2018-11-22T17:33:11.129Z,49.65
2018-11-22T17:35:40.235Z,35.83
2018-11-22T17:38:09.509Z,47.08
2018-11-22T17:40:42.064Z,47.08
2018-11-22T17:43:10.154Z,47.80
2018-11-22T17:45:42.621Z,53.70
2018-11-22T17:48:10.885Z,35.70
2018-11-22T17:50:40.530Z,50.25
2018-11-22T17:53:09.455Z,52.88
2018-11-22T17:55:37.626Z,54.63
2018-11-22T17:58:06.890Z,48.55
2018-11-22T18:00:36.462Z,44.45
2018-11-22T18:03:05.296Z,46.08
2018-11-22T18:05:33.801Z,47.05
2018-11-22T18:08:02.014Z,50.78
2018-11-22T18:10:31.749Z,45.83
2018-11-22T18:13:00.436Z,63.30
2018-11-22T18:15:30.242Z,58.42
2018-11-22T18:17:59.202Z,52.38
2018-11-22T18:20:28.857Z,58.52
2018-11-22T18:22:58.031Z,46.45
2018-11-22T18:25:28.181Z,45.08
2018-11-22T18:27:56.474Z,40.73
2018-11-22T18:30:26.053Z,49.73
2018-11-22T18:33:13.244Z,46.95
2018-11-22T18:35:41.379Z,48.00
2018-11-22T18:38:09.902Z,42.33
2018-11-22T18:40:39.512Z,46.95
2018-11-22T18:43:07.615Z,44.95
2018-11-22T18:45:37.602Z,40.83
2018-11-22T18:48:07.250Z,44.88
2018-11-22T18:50:36.000Z,45.12
2018-11-22T18:53:04.366Z,53.98
2018-11-22T18:55:32.487Z,63.30
2018-11-22T18:58:00.594Z,90.67
2018-11-22T19:00:30.040Z,70.30
2018-11-22T19:02:59.678Z,72.62
2018-11-22T19:05:27.896Z,48.50
2018-11-22T19:07:56.929Z,65.72
2018-11-22T19:10:26.424Z,50.28
2018-11-22T19:12:55.751Z,81.42
2018-11-22T19:15:25.386Z,67.53
2018-11-22T19:17:53.918Z,50.85
2018-11-22T19:20:24.653Z,64.62
2018-11-22T19:22:53.763Z,60.90
2018-11-22T19:25:23.471Z,66.25
2018-11-22T19:27:51.672Z,71.12
2018-11-22T19:30:21.344Z,51.90
2018-11-22T19:32:50.559Z,50.52
2018-11-22T19:35:20.549Z,51.90
2018-11-22T19:37:49.076Z,62.90
2018-11-22T19:40:36.845Z,42.83
2018-11-22T19:43:06.398Z,54.30
2018-11-22T19:45:36.117Z,56.25
2018-11-22T19:48:04.657Z,54.95
2018-11-22T19:50:32.909Z,45.90
2018-11-22T19:53:02.373Z,44.80
2018-11-22T19:55:31.742Z,47.50
2018-11-22T19:58:01.772Z,52.03
2018-11-22T20:00:30.283Z,44.73
2018-11-22T20:02:59.773Z,41.88
2018-11-22T20:05:47.346Z,44.83
2018-11-22T20:08:17.208Z,57.80
2018-11-22T20:10:46.110Z,45.98
2018-11-22T20:13:14.609Z,64.10
2018-11-22T20:15:42.750Z,50.95
2018-11-22T20:18:11.540Z,46.18
2018-11-22T20:20:40.063Z,49.58
2018-11-22T20:23:08.168Z,50.30
2018-11-22T20:25:36.257Z,42.60
2018-11-22T20:28:04.423Z,52.17
2018-11-22T20:30:51.615Z,51.25
2018-11-22T20:33:19.708Z,44.33
2018-11-22T20:35:47.880Z,45.52
2018-11-22T20:38:16.003Z,51.28
2018-11-22T20:40:44.116Z,53.42
2018-11-22T20:43:12.658Z,54.67
2018-11-22T20:45:41.349Z,47.95
2018-11-22T20:48:09.247Z,52.98
2018-11-22T20:50:37.889Z,46.50
2018-11-22T20:53:06.692Z,52.88
2018-11-22T20:55:54.221Z,49.08
2018-11-22T20:58:22.305Z,51.23
2018-11-22T21:00:50.748Z,48.35
2018-11-22T21:03:19.358Z,52.70
2018-11-22T21:05:47.479Z,47.90
2018-11-22T21:08:35.152Z,44.80
2018-11-22T21:11:03.260Z,42.70
2018-11-22T21:13:31.410Z,42.17
2018-11-22T21:15:59.517Z,40.50
2018-11-22T21:18:27.594Z,47.00
2018-11-22T21:20:55.691Z,55.55
2018-11-22T21:23:43.288Z,43.30
2018-11-22T21:26:14.527Z,41.88
2018-11-22T21:28:39.839Z,48.33
2018-11-22T21:31:07.981Z,41.37
2018-11-22T21:33:36.019Z,46.28
2018-11-22T21:36:04.091Z,41.95
2018-11-22T21:38:32.649Z,40.33
2018-11-22T21:41:08.076Z,43.80
2018-11-22T21:43:36.136Z,44.23
2018-11-22T21:46:04.282Z,48.95
2018-11-22T21:48:32.348Z,42.58
2018-11-22T21:51:00.395Z,39.70
2018-11-22T21:53:28.486Z,41.08
2018-11-22T21:55:56.536Z,38.98
2018-11-22T21:58:44.156Z,45.90
2018-11-22T22:01:12.248Z,43.90
2018-11-22T22:03:40.354Z,44.98
2018-11-22T22:06:08.481Z,39.33
2018-11-22T22:08:36.551Z,50.73
2018-11-22T22:11:04.622Z,39.13
2018-11-22T22:13:32.708Z,48.23
2018-11-22T22:16:20.286Z,67.95
2018-11-22T22:19:07.955Z,39.42
2018-11-22T22:21:35.999Z,35.73
2018-11-22T22:24:04.079Z,40.28
2018-11-22T22:26:32.162Z,39.53
2018-11-22T22:29:00.686Z,40.55
2018-11-22T22:31:28.751Z,41.00
2018-11-22T22:33:56.843Z,64.58
2018-11-22T22:36:24.918Z,45.55
2018-11-22T22:38:52.989Z,41.65
2018-11-22T22:41:21.425Z,50.78
2018-11-22T22:43:49.511Z,42.25
2018-11-22T22:46:17.605Z,48.00
2018-11-22T22:48:45.696Z,49.58
2018-11-22T22:51:14.243Z,48.78
2018-11-22T22:53:42.338Z,49.00
2018-11-22T22:56:10.411Z,43.70
2018-11-22T22:58:38.543Z,49.40
2018-11-22T23:01:06.612Z,52.08
2018-11-22T23:03:34.696Z,60.33
2018-11-22T23:06:02.767Z,55.10
2018-11-22T23:08:30.869Z,50.03
2018-11-22T23:10:58.929Z,42.78
2018-11-22T23:13:27.029Z,43.55
2018-11-22T23:15:55.104Z,49.90
2018-11-22T23:18:23.251Z,56.58
2018-11-22T23:20:51.367Z,43.40
2018-11-22T23:23:19.867Z,52.05
2018-11-22T23:25:48.026Z,45.38
2018-11-22T23:28:16.032Z,44.70
2018-11-22T23:30:44.481Z,42.75
2018-11-22T23:33:12.556Z,48.58
2018-11-22T23:35:40.656Z,44.10
2018-11-22T23:38:09.107Z,30.50
2018-11-22T23:40:37.563Z,48.13
2018-11-22T23:43:06.260Z,54.33
2018-11-22T23:45:34.315Z,50.55
2018-11-22T23:48:02.368Z,42.53
2018-11-22T23:50:31.678Z,38.13
2018-11-22T23:53:01.366Z,68.60
2018-11-22T23:55:29.380Z,45.25
2018-11-22T23:57:57.457Z,44.65
